createdAt,value
2018-10-07T00:03:01.104Z,3.7
2018-10-07T00:08:06.110Z,4.4
2018-10-07T00:13:06.140Z,4.2
2018-10-07T00:18:01.092Z,4.0
2018-10-07T00:28:01.096Z,4.4
2018-10-07T00:33:01.095Z,4.0
2018-10-07T00:38:02.124Z,4.2
2018-10-07T00:53:06.123Z,3.9
2018-10-07T00:58:01.151Z,3.5
2018-10-07T01:03:01.189Z,3.0
2018-10-07T01:08:06.097Z,2.7
2018-10-07T01:13:06.163Z,2.6
2018-10-07T01:18:01.098Z,2.5
2018-10-07T01:28:06.169Z,2.6
2018-10-07T01:38:06.116Z,2.7
2018-10-07T01:43:01.176Z,2.9
2018-10-07T01:49:01.097Z,3.1
2018-10-07T01:59:06.168Z,2.9
2018-10-07T02:04:01.100Z,2.7
2018-10-07T02:09:01.102Z,3.2
2018-10-07T02:14:06.237Z,3.3
2018-10-07T02:29:01.095Z,3.8
2018-10-07T02:34:01.097Z,2.9
2018-10-07T02:39:01.123Z,2.6
2018-10-07T02:54:06.112Z,2.7
2018-10-07T02:59:01.108Z,2.9
2018-10-07T03:04:01.110Z,3.1
2018-10-07T03:09:01.095Z,2.9
2018-10-07T03:19:06.173Z,2.4
2018-10-07T03:24:01.102Z,2.2
2018-10-07T03:29:01.101Z,2.0
2018-10-07T03:34:01.106Z,2.3
2018-10-07T03:39:01.148Z,2.4
2018-10-07T03:54:06.167Z,2.4
2018-10-07T03:59:01.139Z,2.2
2018-10-07T04:04:01.104Z,2.8
2018-10-07T04:09:01.109Z,3.4
2018-10-07T04:19:01.115Z,3.3
2018-10-07T04:24:01.095Z,3.8
2018-10-07T04:29:01.102Z,3.2
2018-10-07T04:34:01.102Z,2.6
2018-10-07T04:39:01.101Z,3.9
2018-10-07T04:54:01.110Z,3.9
2018-10-07T05:04:01.112Z,2.7
2018-10-07T05:10:01.096Z,2.8
2018-10-07T05:15:01.103Z,2.4
2018-10-07T05:20:01.098Z,2.5
2018-10-07T05:25:01.101Z,2.9
2018-10-07T05:30:01.104Z,3.4
2018-10-07T05:35:06.136Z,3.3
2018-10-07T05:40:06.106Z,3.5
2018-10-07T05:45:01.104Z,3.4
2018-10-07T05:50:06.177Z,3.2
2018-10-07T05:55:01.106Z,2.8
2018-10-07T06:00:01.112Z,3.0
2018-10-07T06:05:01.115Z,2.9
2018-10-07T06:10:01.176Z,3.1
2018-10-07T06:15:01.257Z,3.2
2018-10-07T06:30:00.962Z,2.4
2018-10-07T06:35:00.821Z,3.0
2018-10-07T06:40:00.807Z,3.1
2018-10-07T06:45:00.814Z,2.9
2018-10-07T06:50:00.808Z,2.7
2018-10-07T06:55:00.817Z,3.0
2018-10-07T07:00:00.812Z,2.7
2018-10-07T07:05:00.816Z,2.4
2018-10-07T07:10:00.838Z,2.6
2018-10-07T07:15:00.827Z,2.6
2018-10-07T07:20:00.877Z,2.2
2018-10-07T07:25:00.832Z,2.3
2018-10-07T07:30:00.831Z,2.3
2018-10-07T07:35:00.827Z,2.4
2018-10-07T07:40:00.830Z,3.3
2018-10-07T07:45:00.831Z,3.5
2018-10-07T07:50:05.836Z,4.4
2018-10-07T08:00:00.957Z,4.2
2018-10-07T08:05:00.843Z,3.3
2018-10-07T08:10:00.840Z,3.5
2018-10-07T08:15:00.843Z,2.9
2018-10-07T08:20:00.846Z,3.6
2018-10-07T08:25:01.252Z,3.7
2018-10-07T08:30:00.851Z,3.8
2018-10-07T08:45:00.850Z,3.4
2018-10-07T08:50:00.974Z,3.2
2018-10-07T09:00:00.854Z,3.0
2018-10-07T09:05:00.886Z,2.7
2018-10-07T09:10:00.927Z,2.8
2018-10-07T09:15:00.889Z,3.0
2018-10-07T09:20:00.909Z,2.9
2018-10-07T09:30:01.072Z,3.6
2018-10-07T09:40:00.871Z,3.9
2018-10-07T09:45:00.910Z,4.0
2018-10-07T09:55:00.916Z,3.4
2018-10-07T10:00:00.909Z,3.2
2018-10-07T10:05:00.978Z,2.8
2018-10-07T10:10:00.881Z,2.6
2018-10-07T10:15:00.889Z,3.0
2018-10-07T10:20:01.033Z,3.1
2018-10-07T10:25:00.885Z,3.3
2018-10-07T10:30:00.897Z,3.2
2018-10-07T10:35:00.895Z,3.1
2018-10-07T10:40:01.048Z,2.5
2018-10-07T10:45:00.929Z,3.0
2018-10-07T10:55:00.987Z,3.4
2018-10-07T11:00:01.449Z,3.5
2018-10-07T11:20:01.099Z,3.0
2018-10-07T11:30:01.186Z,2.7
2018-10-07T11:35:01.097Z,2.8
2018-10-07T11:45:01.133Z,3.1
2018-10-07T11:50:01.068Z,2.9
2018-10-07T11:55:01.073Z,3.1
2018-10-07T12:10:00.489Z,4.0
2018-10-07T12:15:02.019Z,3.0
2018-10-07T12:25:00.477Z,3.1
2018-10-07T12:30:00.480Z,3.0
2018-10-07T12:35:00.481Z,2.6
2018-10-07T12:40:00.488Z,3.2
2018-10-07T12:45:00.549Z,3.0
2018-10-07T12:50:00.720Z,2.8
2018-10-07T13:00:00.497Z,2.8
2018-10-07T13:05:00.495Z,2.6
2018-10-07T13:10:00.565Z,2.8
2018-10-07T13:15:00.645Z,3.0
2018-10-07T13:25:00.502Z,3.1
2018-10-07T13:30:00.499Z,2.7
2018-10-07T13:35:00.502Z,2.5
2018-10-07T13:40:00.599Z,2.3
2018-10-07T13:45:00.564Z,2.3
2018-10-07T13:50:00.508Z,2.6
2018-10-07T13:55:00.545Z,2.8
2018-10-07T14:00:00.553Z,3.2
2018-10-07T14:10:00.516Z,3.4
2018-10-07T14:15:01.103Z,3.1
2018-10-07T14:20:01.464Z,3.0
2018-10-07T14:25:00.555Z,2.8
2018-10-07T14:30:00.594Z,2.8
2018-10-07T14:35:00.531Z,2.7
2018-10-07T14:40:00.529Z,3.4
2018-10-07T14:45:00.940Z,3.9
2018-10-07T14:50:00.536Z,4.3
2018-10-07T15:00:00.541Z,4.4
2018-10-07T15:05:00.539Z,3.8
2018-10-07T15:10:00.545Z,3.5
2018-10-07T15:15:02.134Z,3.1
2018-10-07T15:25:00.546Z,2.9
2018-10-07T15:30:00.617Z,3.0
2018-10-07T15:35:00.545Z,2.7
2018-10-07T15:40:00.560Z,3.7
2018-10-07T15:45:00.987Z,3.9
2018-10-07T15:55:00.561Z,4.2
2018-10-07T16:00:00.561Z,4.3
2018-10-07T16:05:00.563Z,3.1
2018-10-07T16:10:00.565Z,3.0
2018-10-07T16:15:00.564Z,3.0
2018-10-07T16:20:00.566Z,2.8
2018-10-07T16:25:00.569Z,2.6
2018-10-07T16:30:00.578Z,2.8
2018-10-07T16:35:00.578Z,3.0
2018-10-07T16:45:00.592Z,3.1
2018-10-07T16:50:00.663Z,3.6
2018-10-07T16:55:00.580Z,4.2
2018-10-07T17:00:01.184Z,5.0
2018-10-07T17:05:00.584Z,6.4
2018-10-07T17:10:00.584Z,7.2
2018-10-07T17:15:00.590Z,7.8
2018-10-07T17:20:00.715Z,8.4
2018-10-07T17:30:00.597Z,8.1
2018-10-07T17:35:00.870Z,9.3
2018-10-07T17:40:00.608Z,10.8
2018-10-07T17:45:00.604Z,12.5
2018-10-07T17:50:01.011Z,13.1
2018-10-07T17:55:00.701Z,13.0
2018-10-07T18:00:00.606Z,12.4
2018-10-07T18:05:00.608Z,10.7
2018-10-07T18:10:00.607Z,8.4
2018-10-07T18:15:00.687Z,7.7
2018-10-07T18:20:00.612Z,7.8
2018-10-07T18:25:00.614Z,8.6
2018-10-07T18:30:00.624Z,9.4
2018-10-07T18:35:00.619Z,10.8
2018-10-07T18:40:00.641Z,11.7
2018-10-07T18:45:00.657Z,12.7
2018-10-07T18:50:00.625Z,13.1
2018-10-07T19:00:00.685Z,12.4
2018-10-07T19:05:00.636Z,12.2
2018-10-07T19:10:00.635Z,12.4
2018-10-07T19:15:00.634Z,13.2
2018-10-07T19:20:00.642Z,13.0
2018-10-07T19:25:03.165Z,12.0
2018-10-07T19:30:00.641Z,11.8
2018-10-07T19:35:00.644Z,10.6
2018-10-07T19:40:00.680Z,8.6
2018-10-07T19:45:00.687Z,8.1
2018-10-07T19:50:00.679Z,9.2
2018-10-07T19:55:00.957Z,9.1
2018-10-07T20:00:00.708Z,9.1
2018-10-07T20:05:00.658Z,8.8
2018-10-07T20:10:00.661Z,9.0
2018-10-07T20:15:00.658Z,8.6
2018-10-07T20:20:00.665Z,9.0
2018-10-07T20:25:00.669Z,9.3
2018-10-07T20:30:00.662Z,9.3
2018-10-07T20:35:00.716Z,8.9
2018-10-07T20:40:00.734Z,9.2
2018-10-07T20:45:00.669Z,9.4
2018-10-07T20:50:00.671Z,10.0
2018-10-07T20:55:00.767Z,10.1
2018-10-07T21:00:00.709Z,10.4
2018-10-07T21:05:01.013Z,9.8
2018-10-07T21:10:00.681Z,9.7
2018-10-07T21:15:00.681Z,9.1
2018-10-07T21:20:00.685Z,8.8
2018-10-07T21:30:00.689Z,8.6
2018-10-07T21:40:00.689Z,7.8
2018-10-07T21:45:00.719Z,7.8
2018-10-07T21:50:00.695Z,7.7
2018-10-07T21:55:00.698Z,8.2
2018-10-07T22:00:00.769Z,7.7
2018-10-07T22:05:01.082Z,8.1
2018-10-07T22:15:00.734Z,7.8
2018-10-07T22:20:00.817Z,7.4
2018-10-07T22:25:00.747Z,7.2
2018-10-07T22:30:00.754Z,7.5
2018-10-07T22:35:00.748Z,7.7
2018-10-07T22:40:00.755Z,7.8
2018-10-07T22:45:00.990Z,7.6
2018-10-07T22:50:00.714Z,7.5
2018-10-07T22:55:00.752Z,7.3
2018-10-07T23:00:00.719Z,6.8
2018-10-07T23:05:00.718Z,6.4
2018-10-07T23:10:00.721Z,6.1
2018-10-07T23:15:01.054Z,6.0
2018-10-07T23:20:02.119Z,5.1
2018-10-07T23:30:00.737Z,4.5
2018-10-07T23:35:00.747Z,4.8
2018-10-07T23:40:00.746Z,4.4
2018-10-07T23:45:00.930Z,4.7
2018-10-07T23:50:01.009Z,4.5
2018-10-07T23:55:00.797Z,4.9
